Time;durP1;ratioP1;P1;durP2;ratioP2;P2;SDS_P1;SDS_P2;PMS_P1;PMS_P2;Temp;Humidity;BMP_temperature;BMP_pressure;BME280_temperature;BME280_humidity;BME280_pressure;Samples;Min_cycle;Max_cycle;Signal;HPM_P1;HPM_P2
2023/04/12 00:01:34;;;;;;;;;;;10.20;82.20;;;;;;6133709;23;19955;-96
2023/04/12 00:04:04;;;;;;;;;;;10.10;82.70;;;;;;6159988;23;19912;-96
2023/04/12 00:06:33;;;;;;;;;;;10.20;82.50;;;;;;6161388;23;19960;-96
2023/04/12 00:08:59;;;;;;;;;;;10.20;80.70;;;;;;6162287;23;19911;-96
2023/04/12 00:11:27;;;;;;;;;;;10.30;78.30;;;;;;6162046;23;19924;-96
2023/04/12 00:13:53;;;;;;;;;;;10.40;77.50;;;;;;6160396;23;19904;-96
2023/04/12 00:16:18;;;;;;;;;;;10.50;77.50;;;;;;6162276;23;19951;-96
2023/04/12 00:18:44;;;;;;;;;;;10.60;76.50;;;;;;6135573;23;20323;-96
2023/04/12 00:21:10;;;;;;;;;;;10.70;76.70;;;;;;6161670;23;20382;-96
2023/04/12 00:23:36;;;;;;;;;;;10.70;77.00;;;;;;6161890;23;19959;-95
2023/04/12 00:26:05;;;;;;;;;;;10.80;76.80;;;;;;6162410;23;19908;-96
2023/04/12 00:28:31;;;;;;;;;;;10.80;77.90;;;;;;6135510;23;19904;-96
2023/04/12 00:30:56;;;;;;;;;;;10.80;78.90;;;;;;6162200;23;19959;-95
2023/04/12 00:33:22;;;;;;;;;;;10.80;77.90;;;;;;6161947;23;19940;-96
2023/04/12 00:35:48;;;;;;;;;;;10.90;76.20;;;;;;6162207;23;19912;-96
2023/04/12 00:38:15;;;;;;;;;;;10.90;75.40;;;;;;6162022;23;20334;-96
2023/04/12 00:40:41;;;;;;;;;;;10.90;75.00;;;;;;6160034;23;19904;-96
2023/04/12 00:43:07;;;;;;;;;;;11.00;74.80;;;;;;6135770;23;19912;-96
2023/04/12 00:45:34;;;;;;;;;;;11.10;74.60;;;;;;6161954;23;19905;-96
2023/04/12 00:48:00;;;;;;;;;;;11.10;74.20;;;;;;6136493;23;19909;-96
2023/04/12 00:50:25;;;;;;;;;;;11.10;73.90;;;;;;6136588;23;19920;-96
2023/04/12 00:52:52;;;;;;;;;;;11.10;77.20;;;;;;6136207;23;19905;-96
2023/04/12 00:55:18;;;;;;;;;;;11.10;78.60;;;;;;6162142;23;19912;-96
2023/04/12 00:57:43;;;;;;;;;;;11.00;79.10;;;;;;6162812;23;19909;-96
2023/04/12 01:00:12;;;;;;;;;;;10.90;78.40;;;;;;6162598;23;19904;-96
2023/04/12 01:02:45;;;;;;;;;;;10.90;79.20;;;;;;6135775;23;19932;-96
2023/04/12 01:05:13;;;;;;;;;;;10.90;77.00;;;;;;6162449;23;19911;-96
2023/04/12 01:07:50;;;;;;;;;;;11.00;75.50;;;;;;6161821;23;19915;-96
2023/04/12 01:10:15;;;;;;;;;;;11.10;74.00;;;;;;6163150;23;19909;-96
2023/04/12 01:12:47;;;;;;;;;;;11.10;73.30;;;;;;6162216;23;19952;-96
2023/04/12 01:15:14;;;;;;;;;;;11.10;72.70;;;;;;6162791;23;19984;-96
2023/04/12 01:17:46;;;;;;;;;;;11.20;72.30;;;;;;6161743;23;19975;-96
2023/04/12 01:20:18;;;;;;;;;;;11.20;72.10;;;;;;6162042;23;20373;-96
2023/04/12 01:22:58;;;;;;;;;;;11.10;72.50;;;;;;6162488;23;19911;-96
2023/04/12 01:25:26;;;;;;;;;;;11.20;72.10;;;;;;6162665;23;19905;-96
2023/04/12 01:27:53;;;;;;;;;;;11.20;72.30;;;;;;6135628;23;19936;-96
2023/04/12 01:30:19;;;;;;;;;;;11.20;72.20;;;;;;6161783;23;19911;-96
2023/04/12 01:32:50;;;;;;;;;;;11.10;71.90;;;;;;6162164;23;19905;-96
2023/04/12 01:35:16;;;;;;;;;;;11.10;71.80;;;;;;6162281;23;20318;-96
2023/04/12 01:37:42;;;;;;;;;;;11.20;71.60;;;;;;6135538;23;19908;-96
2023/04/12 01:40:08;;;;;;;;;;;11.10;71.50;;;;;;6135784;23;20220;-96
2023/04/12 01:42:34;;;;;;;;;;;11.20;71.50;;;;;;6162533;23;19908;-96
2023/04/12 01:45:00;;;;;;;;;;;11.20;72.10;;;;;;6161894;23;19931;-96
2023/04/12 01:47:26;;;;;;;;;;;11.20;72.20;;;;;;6161801;23;19931;-96
2023/04/12 01:50:07;;;;;;;;;;;11.20;71.80;;;;;;6161287;23;19940;-96
2023/04/12 01:52:35;;;;;;;;;;;11.20;71.60;;;;;;6161799;23;19912;-96
2023/04/12 01:55:03;;;;;;;;;;;11.20;71.50;;;;;;6161046;23;19931;-96
2023/04/12 01:57:29;;;;;;;;;;;11.20;71.50;;;;;;6161517;23;19908;-96
2023/04/12 01:59:56;;;;;;;;;;;11.20;71.40;;;;;;6161840;23;19988;-96
2023/04/12 02:02:22;;;;;;;;;;;11.10;71.50;;;;;;6161518;23;19905;-96
2023/04/12 02:04:48;;;;;;;;;;;11.10;72.00;;;;;;6135054;23;19936;-95
2023/04/12 02:07:14;;;;;;;;;;;11.10;72.20;;;;;;6161664;23;19908;-96
2023/04/12 02:09:40;;;;;;;;;;;11.10;72.30;;;;;;6160873;23;19911;-96
2023/04/12 02:12:06;;;;;;;;;;;11.10;71.70;;;;;;6134779;23;19904;-96
2023/04/12 02:14:31;;;;;;;;;;;11.00;71.30;;;;;;6160880;23;19904;-96
2023/04/12 02:16:57;;;;;;;;;;;11.00;71.00;;;;;;6134289;23;19915;-94
2023/04/12 02:19:23;;;;;;;;;;;10.90;71.10;;;;;;6134065;23;19905;-96
2023/04/12 02:21:49;;;;;;;;;;;10.90;71.50;;;;;;6133770;23;19971;-95
2023/04/12 02:24:14;;;;;;;;;;;10.80;71.70;;;;;;6160994;23;19916;-96
2023/04/12 02:26:40;;;;;;;;;;;10.80;72.20;;;;;;6160407;23;19909;-96
2023/04/12 02:29:07;;;;;;;;;;;10.80;72.20;;;;;;6160522;23;20283;-96
2023/04/12 02:31:34;;;;;;;;;;;10.80;72.50;;;;;;6161158;23;19904;-96
2023/04/12 02:34:00;;;;;;;;;;;10.80;72.40;;;;;;6134465;23;20323;-96
2023/04/12 02:36:25;;;;;;;;;;;10.80;72.30;;;;;;6134928;23;19905;-96
2023/04/12 02:38:51;;;;;;;;;;;10.90;71.80;;;;;;6160863;23;19905;-95
2023/04/12 02:41:17;;;;;;;;;;;10.80;71.90;;;;;;6160192;23;19975;-96
2023/04/12 02:43:43;;;;;;;;;;;10.70;71.90;;;;;;6161050;23;20274;-96
2023/04/12 02:46:08;;;;;;;;;;;10.70;72.00;;;;;;6160602;23;19995;-96
2023/04/12 02:48:34;;;;;;;;;;;10.70;72.10;;;;;;6134535;23;20242;-96
2023/04/12 02:51:00;;;;;;;;;;;10.70;72.20;;;;;;6134522;23;20216;-96
2023/04/12 02:53:25;;;;;;;;;;;10.70;71.90;;;;;;6161107;23;19904;-96
2023/04/12 02:55:51;;;;;;;;;;;10.80;71.60;;;;;;6134865;23;20362;-96
2023/04/12 02:58:17;;;;;;;;;;;10.80;71.70;;;;;;6161846;23;19904;-96
2023/04/12 03:00:44;;;;;;;;;;;10.80;72.50;;;;;;6136410;23;19912;-96
2023/04/12 03:03:10;;;;;;;;;;;10.80;73.10;;;;;;6135581;23;19935;-96
2023/04/12 03:05:36;;;;;;;;;;;10.70;73.70;;;;;;6162956;23;19904;-96
2023/04/12 03:08:02;;;;;;;;;;;10.70;73.90;;;;;;6134864;23;20369;-96
2023/04/12 03:10:28;;;;;;;;;;;10.60;74.60;;;;;;6161981;23;19908;-95
2023/04/12 03:12:53;;;;;;;;;;;10.50;75.60;;;;;;6161298;23;19969;-96
2023/04/12 03:15:19;;;;;;;;;;;10.50;74.40;;;;;;6161494;23;19983;-96
2023/04/12 03:17:44;;;;;;;;;;;10.50;73.90;;;;;;6162301;23;19904;-96
2023/04/12 03:20:10;;;;;;;;;;;10.60;73.30;;;;;;6161748;23;20239;-96
2023/04/12 03:22:36;;;;;;;;;;;10.60;72.80;;;;;;6161727;23;19905;-96
2023/04/12 03:25:02;;;;;;;;;;;10.60;72.40;;;;;;6161693;23;20226;-96
2023/04/12 03:27:28;;;;;;;;;;;10.60;73.40;;;;;;6160962;23;19912;-96
2023/04/12 03:29:54;;;;;;;;;;;10.60;72.70;;;;;;6161367;23;20338;-96
2023/04/12 03:32:20;;;;;;;;;;;10.70;72.30;;;;;;6160894;23;20315;-96
2023/04/12 03:34:46;;;;;;;;;;;10.60;72.10;;;;;;6160779;23;19927;-96
2023/04/12 03:37:12;;;;;;;;;;;10.60;71.80;;;;;;6160560;23;19905;-96
2023/04/12 03:39:37;;;;;;;;;;;10.60;72.00;;;;;;6134387;23;20224;-96
2023/04/12 03:42:03;;;;;;;;;;;10.60;72.80;;;;;;6162869;23;19931;-95
2023/04/12 03:44:28;;;;;;;;;;;10.50;73.60;;;;;;6162532;23;19979;-96
2023/04/12 03:46:54;;;;;;;;;;;10.30;73.60;;;;;;6162061;23;19956;-96
2023/04/12 03:49:20;;;;;;;;;;;10.00;75.30;;;;;;6135939;23;19912;-96
2023/04/12 03:51:49;;;;;;;;;;;9.90;75.80;;;;;;6135419;23;19936;-96
2023/04/12 03:54:15;;;;;;;;;;;9.90;75.70;;;;;;6162824;23;19963;-96
2023/04/12 03:56:41;;;;;;;;;;;9.90;75.50;;;;;;6136961;23;19952;-96
2023/04/12 03:59:06;;;;;;;;;;;10.00;75.60;;;;;;6164083;23;20216;-96
2023/04/12 04:01:33;;;;;;;;;;;10.00;76.40;;;;;;6139218;23;19915;-96
2023/04/12 04:03:59;;;;;;;;;;;10.00;78.60;;;;;;6164766;23;19911;-96
2023/04/12 04:06:25;;;;;;;;;;;9.90;78.50;;;;;;6163628;23;19991;-96
2023/04/12 04:08:51;;;;;;;;;;;10.00;76.50;;;;;;6162993;23;19911;-96
2023/04/12 04:11:16;;;;;;;;;;;10.00;76.40;;;;;;6162487;23;19904;-95
2023/04/12 04:13:42;;;;;;;;;;;10.00;75.90;;;;;;6163432;23;19961;-96
2023/04/12 04:16:10;;;;;;;;;;;10.20;75.70;;;;;;6164765;23;19908;-95
2023/04/12 04:18:36;;;;;;;;;;;10.20;75.60;;;;;;6164211;23;19905;-96
2023/04/12 04:21:02;;;;;;;;;;;10.30;75.90;;;;;;6163296;23;19909;-96
2023/04/12 04:23:29;;;;;;;;;;;10.20;75.30;;;;;;6137666;23;19908;-96
2023/04/12 04:25:55;;;;;;;;;;;10.10;74.20;;;;;;6167597;23;20337;-96
2023/04/12 04:28:21;;;;;;;;;;;10.10;74.30;;;;;;6169402;23;19904;-96
2023/04/12 04:30:46;;;;;;;;;;;10.10;74.60;;;;;;6164803;23;20088;-96
2023/04/12 04:33:12;;;;;;;;;;;10.10;74.60;;;;;;6142010;23;20223;-96
2023/04/12 04:35:38;;;;;;;;;;;10.10;75.10;;;;;;6169481;23;19916;-96
2023/04/12 04:38:04;;;;;;;;;;;10.20;76.70;;;;;;6169609;23;19920;-96
2023/04/12 04:40:31;;;;;;;;;;;10.20;76.40;;;;;;6169307;23;19905;-96
2023/04/12 04:42:56;;;;;;;;;;;10.10;75.60;;;;;;6168204;23;19905;-96
2023/04/12 04:45:25;;;;;;;;;;;10.00;76.10;;;;;;6141494;23;20304;-96
2023/04/12 04:47:52;;;;;;;;;;;10.00;76.60;;;;;;6166377;23;19916;-95
2023/04/12 04:50:18;;;;;;;;;;;10.00;76.50;;;;;;6167019;23;19916;-96
2023/04/12 04:52:43;;;;;;;;;;;10.00;77.20;;;;;;6168266;23;19939;-96
2023/04/12 04:55:09;;;;;;;;;;;10.00;77.60;;;;;;6171226;23;19905;-96
2023/04/12 04:57:35;;;;;;;;;;;9.90;78.10;;;;;;6144809;23;19905;-96
2023/04/12 05:00:01;;;;;;;;;;;10.00;77.00;;;;;;6171730;23;20000;-96
2023/04/12 05:02:27;;;;;;;;;;;10.00;77.30;;;;;;6145869;23;20312;-96
2023/04/12 05:04:55;;;;;;;;;;;10.00;76.40;;;;;;6142935;23;19909;-96
2023/04/12 05:07:21;;;;;;;;;;;10.10;76.40;;;;;;6141980;23;19912;-96
2023/04/12 05:09:46;;;;;;;;;;;10.20;76.10;;;;;;6142542;23;19927;-96
2023/04/12 05:12:12;;;;;;;;;;;10.20;76.10;;;;;;6140518;23;19911;-96
2023/04/12 05:14:38;;;;;;;;;;;10.30;78.50;;;;;;6139609;23;19908;-96
2023/04/12 05:17:04;;;;;;;;;;;10.30;78.90;;;;;;6166380;23;19911;-96
2023/04/12 05:19:30;;;;;;;;;;;10.30;78.50;;;;;;6141119;23;19924;-96
2023/04/12 05:21:56;;;;;;;;;;;10.40;77.50;;;;;;6166509;23;19904;-96
2023/04/12 05:24:22;;;;;;;;;;;10.40;76.90;;;;;;6168853;23;19904;-96
2023/04/12 05:26:47;;;;;;;;;;;10.50;75.70;;;;;;6167291;23;19919;-96
2023/04/12 05:29:13;;;;;;;;;;;10.50;75.00;;;;;;6143793;23;19912;-96
2023/04/12 05:31:39;;;;;;;;;;;10.60;75.00;;;;;;6170265;23;19928;-96
2023/04/12 05:34:04;;;;;;;;;;;10.80;76.30;;;;;;6143298;23;19934;-96
2023/04/12 05:36:30;;;;;;;;;;;10.80;77.00;;;;;;6144178;23;19929;-96
2023/04/12 05:38:56;;;;;;;;;;;10.90;77.30;;;;;;6145748;23;19948;-95
2023/04/12 05:41:22;;;;;;;;;;;11.00;77.40;;;;;;6147343;23;19953;-96
2023/04/12 05:43:47;;;;;;;;;;;11.10;75.80;;;;;;6171626;23;19995;-96
2023/04/12 05:46:13;;;;;;;;;;;11.10;75.30;;;;;;6144088;23;19909;-96
2023/04/12 05:48:39;;;;;;;;;;;11.10;75.40;;;;;;6169047;23;19905;-96
2023/04/12 05:51:04;;;;;;;;;;;11.20;74.90;;;;;;6141821;23;19957;-96
2023/04/12 05:53:31;;;;;;;;;;;11.30;74.50;;;;;;6142016;23;19983;-96
2023/04/12 05:55:57;;;;;;;;;;;11.30;74.40;;;;;;6169526;23;20319;-95
2023/04/12 05:58:23;;;;;;;;;;;11.40;73.20;;;;;;6141310;23;19908;-96
2023/04/12 06:00:49;;;;;;;;;;;11.40;71.80;;;;;;6167175;23;20284;-96
2023/04/12 06:03:14;;;;;;;;;;;11.50;71.70;;;;;;6166891;23;19913;-96
2023/04/12 06:05:40;;;;;;;;;;;11.60;72.70;;;;;;6168002;23;19905;-96
2023/04/12 06:08:07;;;;;;;;;;;11.70;73.30;;;;;;6142412;23;19913;-95
2023/04/12 06:10:33;;;;;;;;;;;11.70;73.90;;;;;;6145315;23;19904;-96
2023/04/12 06:12:58;;;;;;;;;;;11.80;73.70;;;;;;6177047;23;19916;-96
2023/04/12 06:15:25;;;;;;;;;;;11.90;73.70;;;;;;6175052;23;19948;-96
2023/04/12 06:17:51;;;;;;;;;;;12.00;73.40;;;;;;6170196;23;19905;-96
2023/04/12 06:20:17;;;;;;;;;;;12.20;72.50;;;;;;6169769;23;19912;-96
2023/04/12 06:22:45;;;;;;;;;;;12.30;72.00;;;;;;6146691;23;19952;-96
2023/04/12 06:25:11;;;;;;;;;;;12.40;70.90;;;;;;6171682;23;20223;-96
2023/04/12 06:27:36;;;;;;;;;;;12.40;70.90;;;;;;6145068;23;19916;-96
2023/04/12 06:30:03;;;;;;;;;;;12.50;70.90;;;;;;6169481;23;19905;-96
2023/04/12 06:32:29;;;;;;;;;;;12.60;70.10;;;;;;6168866;23;19927;-96
2023/04/12 06:34:55;;;;;;;;;;;12.70;70.30;;;;;;6144616;23;19911;-96
2023/04/12 06:37:21;;;;;;;;;;;12.70;70.20;;;;;;6166278;23;19905;-96
2023/04/12 06:39:47;;;;;;;;;;;12.60;70.40;;;;;;6167434;23;19905;-96
2023/04/12 06:42:13;;;;;;;;;;;12.60;70.40;;;;;;6165116;23;19971;-96
2023/04/12 06:44:39;;;;;;;;;;;12.50;71.20;;;;;;6166810;23;19928;-96
2023/04/12 06:47:05;;;;;;;;;;;12.70;71.10;;;;;;6141768;23;19908;-96
2023/04/12 06:49:30;;;;;;;;;;;12.70;71.00;;;;;;6165595;23;19987;-96
2023/04/12 06:51:56;;;;;;;;;;;12.60;71.60;;;;;;6164842;23;19943;-96
2023/04/12 06:54:22;;;;;;;;;;;12.60;72.00;;;;;;6164463;23;20224;-96
2023/04/12 06:56:48;;;;;;;;;;;12.70;71.10;;;;;;6165055;23;19909;-96
2023/04/12 06:59:14;;;;;;;;;;;12.70;69.60;;;;;;6140301;23;20285;-96
2023/04/12 07:01:40;;;;;;;;;;;12.80;69.60;;;;;;6147234;23;19928;-96
2023/04/12 07:04:07;;;;;;;;;;;12.90;68.70;;;;;;6148931;23;20314;-96
2023/04/12 07:06:33;;;;;;;;;;;13.00;68.80;;;;;;6148310;23;19935;-96
2023/04/12 07:08:59;;;;;;;;;;;13.20;67.60;;;;;;6164821;23;19909;-96
2023/04/12 07:11:26;;;;;;;;;;;13.20;67.90;;;;;;6148827;23;19988;-96
2023/04/12 07:13:52;;;;;;;;;;;13.30;67.10;;;;;;6150839;23;19905;-96
2023/04/12 07:16:18;;;;;;;;;;;13.40;66.40;;;;;;6144926;23;19920;-96
2023/04/12 07:18:44;;;;;;;;;;;13.40;65.90;;;;;;6142629;23;19905;-96
2023/04/12 07:21:13;;;;;;;;;;;13.40;66.00;;;;;;6144689;23;19911;-96
2023/04/12 07:23:39;;;;;;;;;;;13.40;66.40;;;;;;6145742;23;19976;-96
2023/04/12 07:26:06;;;;;;;;;;;13.40;66.30;;;;;;6171490;23;19972;-96
2023/04/12 07:28:34;;;;;;;;;;;13.40;66.20;;;;;;6146177;23;19992;-96
2023/04/12 07:31:00;;;;;;;;;;;13.60;66.00;;;;;;6150508;23;19904;-96
2023/04/12 07:33:28;;;;;;;;;;;13.70;65.70;;;;;;6152113;23;19983;-96
2023/04/12 07:35:54;;;;;;;;;;;13.90;66.00;;;;;;6152421;23;19960;-96
2023/04/12 07:38:21;;;;;;;;;;;14.00;65.70;;;;;;6152716;23;19909;-96
2023/04/12 07:40:46;;;;;;;;;;;14.30;64.00;;;;;;6151506;23;19905;-96
2023/04/12 07:43:12;;;;;;;;;;;14.40;62.10;;;;;;6150098;23;20235;-96
2023/04/12 07:45:38;;;;;;;;;;;14.60;61.50;;;;;;6175855;23;19912;-96
2023/04/12 07:48:05;;;;;;;;;;;14.70;62.10;;;;;;6149577;23;19965;-96
2023/04/12 07:50:31;;;;;;;;;;;14.80;61.80;;;;;;6150757;23;19920;-96
2023/04/12 07:53:17;;;;;;;;;;;14.80;61.60;;;;;;6175735;23;19946;-96
2023/04/12 07:55:42;;;;;;;;;;;14.90;61.10;;;;;;6152613;23;19909;-96
2023/04/12 07:58:08;;;;;;;;;;;14.90;60.00;;;;;;6149885;23;19924;-96
2023/04/12 08:00:36;;;;;;;;;;;15.00;61.00;;;;;;6149837;23;23199;-96
2023/04/12 08:03:03;;;;;;;;;;;15.10;60.30;;;;;;6152136;23;19896;-96
2023/04/12 08:05:31;;;;;;;;;;;15.10;60.90;;;;;;6155991;23;19905;-96
2023/04/12 08:07:58;;;;;;;;;;;15.20;60.10;;;;;;6155357;23;19892;-96
2023/04/12 08:10:25;;;;;;;;;;;15.30;59.90;;;;;;6155542;23;19912;-96
2023/04/12 08:12:52;;;;;;;;;;;15.40;59.60;;;;;;6154797;23;19911;-96
2023/04/12 08:15:18;;;;;;;;;;;15.50;58.80;;;;;;6152090;23;19912;-96
2023/04/12 08:17:45;;;;;;;;;;;15.60;57.40;;;;;;6150206;23;19904;-96
2023/04/12 08:20:11;;;;;;;;;;;15.60;57.00;;;;;;6148329;23;20397;-96
2023/04/12 08:22:37;;;;;;;;;;;15.60;55.10;;;;;;6149063;23;19905;-96
2023/04/12 08:25:02;;;;;;;;;;;15.80;55.50;;;;;;6149118;23;19905;-96
2023/04/12 08:27:32;;;;;;;;;;;15.70;54.90;;;;;;6150144;23;20242;-96
2023/04/12 08:29:58;;;;;;;;;;;15.80;54.10;;;;;;6153813;23;19928;-96
2023/04/12 08:32:25;;;;;;;;;;;15.80;54.30;;;;;;6155127;23;19905;-96
2023/04/12 08:34:54;;;;;;;;;;;15.90;54.40;;;;;;6155521;23;19912;-96
2023/04/12 08:37:20;;;;;;;;;;;15.80;55.90;;;;;;6156062;23;19909;-96
2023/04/12 08:39:47;;;;;;;;;;;15.80;56.10;;;;;;6155791;23;19912;-96
2023/04/12 08:42:15;;;;;;;;;;;15.90;56.00;;;;;;6132767;23;19909;-96
2023/04/12 08:44:43;;;;;;;;;;;16.00;56.00;;;;;;6156150;23;19915;-96
2023/04/12 08:47:10;;;;;;;;;;;16.00;56.00;;;;;;6156703;23;20441;-96
2023/04/12 08:52:18;;;;;;;;;;;15.80;57.40;;;;;;6161918;22;19928;-96
2023/04/12 08:54:50;;;;;;;;;;;15.80;56.90;;;;;;6157885;23;19920;-96
2023/04/12 08:57:18;;;;;;;;;;;15.80;57.20;;;;;;6157665;23;19909;-96
2023/04/12 08:59:49;;;;;;;;;;;15.70;56.00;;;;;;6182982;23;19905;-96
2023/04/12 09:02:19;;;;;;;;;;;15.80;56.00;;;;;;6152151;23;19905;-96
2023/04/12 09:04:52;;;;;;;;;;;15.80;56.10;;;;;;6127483;23;19906;-96
2023/04/12 09:07:26;;;;;;;;;;;15.80;55.20;;;;;;6152713;23;19920;-96
2023/04/12 09:09:52;;;;;;;;;;;15.80;55.40;;;;;;6127569;23;19949;-96
2023/04/12 09:12:22;;;;;;;;;;;15.70;55.20;;;;;;6128064;23;19908;-96
2023/04/12 09:15:17;;;;;;;;;;;15.60;56.10;;;;;;6153034;23;19905;-96
2023/04/12 09:17:43;;;;;;;;;;;15.40;58.30;;;;;;6126870;23;19928;-96
2023/04/12 09:20:15;;;;;;;;;;;15.30;59.50;;;;;;6127205;23;19896;-96
2023/04/12 09:22:47;;;;;;;;;;;15.20;58.70;;;;;;6126683;23;19896;-96
2023/04/12 09:25:15;;;;;;;;;;;15.20;59.70;;;;;;6152860;23;19889;-96
2023/04/12 09:27:45;;;;;;;;;;;15.10;61.20;;;;;;6151453;23;19937;-96
2023/04/12 09:30:11;;;;;;;;;;;15.10;60.00;;;;;;6127273;23;19905;-96
2023/04/12 09:32:41;;;;;;;;;;;15.20;59.00;;;;;;6126370;23;19889;-97
2023/04/12 09:35:09;;;;;;;;;;;15.30;58.80;;;;;;6127524;23;19912;-96
2023/04/12 09:37:41;;;;;;;;;;;15.40;58.50;;;;;;6127485;23;19931;-96
2023/04/12 09:40:09;;;;;;;;;;;15.40;57.40;;;;;;6124748;23;19905;-96
2023/04/12 09:42:55;;;;;;;;;;;15.50;56.60;;;;;;6150866;23;19889;-96
2023/04/12 09:45:24;;;;;;;;;;;15.50;57.50;;;;;;6120939;23;19905;-96
2023/04/12 09:47:50;;;;;;;;;;;15.40;58.70;;;;;;6100951;23;19924;-96
2023/04/12 09:50:25;;;;;;;;;;;15.30;58.60;;;;;;6125362;23;19940;-96
2023/04/12 09:52:52;;;;;;;;;;;15.30;59.50;;;;;;6120285;23;19901;-96
2023/04/12 09:55:22;;;;;;;;;;;15.30;58.00;;;;;;6121854;23;19960;-96
2023/04/12 09:57:49;;;;;;;;;;;15.30;58.40;;;;;;6120206;23;19921;-96
2023/04/12 10:00:19;;;;;;;;;;;15.30;59.30;;;;;;6120187;23;19905;-96
2023/04/12 10:02:47;;;;;;;;;;;15.40;59.20;;;;;;6120721;23;19890;-96
2023/04/12 10:05:15;;;;;;;;;;;15.50;58.80;;;;;;6121299;23;19929;-96
2023/04/12 10:07:42;;;;;;;;;;;15.60;59.20;;;;;;6122680;23;19893;-96
2023/04/12 10:10:12;;;;;;;;;;;15.60;58.20;;;;;;6121604;23;19889;-96
2023/04/12 10:12:41;;;;;;;;;;;15.80;58.30;;;;;;6121088;23;19905;-96
2023/04/12 10:15:15;;;;;;;;;;;15.70;57.30;;;;;;6121313;23;19905;-96
2023/04/12 10:17:47;;;;;;;;;;;15.70;57.70;;;;;;6120177;23;19896;-96
2023/04/12 10:20:14;;;;;;;;;;;15.90;58.10;;;;;;6120061;23;19910;-96
2023/04/12 10:22:40;;;;;;;;;;;16.00;56.20;;;;;;6119847;23;19916;-96
2023/04/12 10:25:11;;;;;;;;;;;16.10;56.00;;;;;;6120858;23;19906;-96
2023/04/12 10:27:41;;;;;;;;;;;16.10;57.00;;;;;;6120814;23;19909;-96
2023/04/12 10:30:26;;;;;;;;;;;16.10;56.20;;;;;;6120772;23;19906;-96
2023/04/12 10:33:01;;;;;;;;;;;16.30;55.90;;;;;;6144811;23;20224;-96
2023/04/12 10:35:27;;;;;;;;;;;16.30;55.70;;;;;;6118348;23;19953;-96
2023/04/12 10:38:00;;;;;;;;;;;16.30;55.90;;;;;;6117071;23;19905;-96
2023/04/12 10:40:26;;;;;;;;;;;16.20;56.30;;;;;;6116685;23;19905;-96
2023/04/12 10:43:27;;;;;;;;;;;16.10;57.20;;;;;;6115671;23;19906;-96
2023/04/12 10:45:53;;;;;;;;;;;16.00;57.00;;;;;;6028329;23;19937;-95
2023/04/12 10:48:29;;;;;;;;;;;15.80;56.90;;;;;;6092061;23;19909;-96
2023/04/12 10:51:25;;;;;;;;;;;15.80;57.30;;;;;;6118109;23;19928;-96
2023/04/12 10:53:51;;;;;;;;;;;15.80;57.10;;;;;;6134138;23;19917;-96
2023/04/12 10:56:32;;;;;;;;;;;15.70;57.00;;;;;;6120456;23;19953;-95
2023/04/12 10:58:59;;;;;;;;;;;15.80;56.50;;;;;;6118957;23;19987;-96
2023/04/12 11:01:25;;;;;;;;;;;15.80;56.20;;;;;;6145234;23;19912;-96
2023/04/12 11:04:11;;;;;;;;;;;15.80;55.60;;;;;;6119510;23;19905;-96
2023/04/12 11:06:49;;;;;;;;;;;15.80;56.20;;;;;;6119733;23;20350;-96
2023/04/12 11:09:16;;;;;;;;;;;15.80;56.50;;;;;;6146205;23;20323;-96
2023/04/12 11:11:42;;;;;;;;;;;15.60;57.10;;;;;;6146383;23;19905;-96
2023/04/12 11:14:13;;;;;;;;;;;15.50;58.60;;;;;;6120795;23;19905;-96
2023/04/12 11:16:58;;;;;;;;;;;15.60;58.60;;;;;;6121584;23;20276;-96
2023/04/12 11:19:24;;;;;;;;;;;15.60;58.20;;;;;;6121621;23;19912;-96
2023/04/12 11:21:50;;;;;;;;;;;15.70;57.70;;;;;;6121760;23;19909;-96
2023/04/12 11:24:16;;;;;;;;;;;15.70;57.10;;;;;;6122282;23;20338;-96
2023/04/12 11:26:43;;;;;;;;;;;15.70;57.10;;;;;;6121586;23;19944;-96
2023/04/12 11:29:11;;;;;;;;;;;15.80;56.60;;;;;;6121942;23;19908;-96
2023/04/12 11:31:37;;;;;;;;;;;15.80;57.40;;;;;;6118833;23;19945;-96
2023/04/12 11:34:03;;;;;;;;;;;15.90;56.70;;;;;;6143955;23;19928;-96
2023/04/12 11:36:29;;;;;;;;;;;16.00;56.00;;;;;;6118713;23;19908;-96
2023/04/12 11:38:55;;;;;;;;;;;16.00;54.40;;;;;;6143945;23;19911;-96
2023/04/12 11:41:21;;;;;;;;;;;16.10;54.40;;;;;;6118327;23;19912;-96
2023/04/12 11:43:47;;;;;;;;;;;16.20;55.80;;;;;;6142960;23;19905;-96
2023/04/12 11:46:14;;;;;;;;;;;16.40;52.60;;;;;;6117809;23;19905;-96
2023/04/12 11:48:43;;;;;;;;;;;16.80;51.00;;;;;;6118733;23;19909;-96
2023/04/12 11:51:19;;;;;;;;;;;16.90;52.30;;;;;;6118713;23;19905;-96
2023/04/12 11:53:45;;;;;;;;;;;17.20;50.30;;;;;;6120142;23;19984;-96
2023/04/12 11:56:11;;;;;;;;;;;17.40;50.20;;;;;;6120693;23;19924;-96
2023/04/12 11:58:37;;;;;;;;;;;17.80;51.70;;;;;;6118007;23;19928;-96
2023/04/12 12:01:03;;;;;;;;;;;18.10;49.10;;;;;;6147653;23;19956;-96
2023/04/12 12:03:32;;;;;;;;;;;18.50;49.50;;;;;;6150633;23;19927;-96
2023/04/12 12:06:00;;;;;;;;;;;19.00;47.00;;;;;;6129940;23;19900;-96
2023/04/12 12:08:30;;;;;;;;;;;19.40;44.60;;;;;;6105307;23;19901;-96
2023/04/12 12:10:59;;;;;;;;;;;19.70;44.80;;;;;;6129747;23;19889;-96
2023/04/12 12:41:58;;;;;;;;;;;18.50;40.90;;;;;;6164682;23;19921;-96
2023/04/12 12:44:24;;;;;;;;;;;18.50;43.10;;;;;;6151634;23;19905;-96
2023/04/12 12:46:50;;;;;;;;;;;18.40;44.00;;;;;;6178684;23;19912;-96
2023/04/12 12:49:16;;;;;;;;;;;18.40;43.00;;;;;;6153561;23;19889;-96
2023/04/12 12:51:42;;;;;;;;;;;18.20;43.70;;;;;;6154496;23;19905;-96
2023/04/12 12:54:09;;;;;;;;;;;18.10;44.20;;;;;;6154909;23;19908;-95
2023/04/12 12:56:35;;;;;;;;;;;18.10;45.00;;;;;;6155554;23;19936;-96
2023/04/12 12:59:03;;;;;;;;;;;18.20;45.50;;;;;;6130153;23;19916;-96
2023/04/12 13:01:33;;;;;;;;;;;18.30;46.00;;;;;;6155884;23;19932;-96
2023/04/12 13:04:01;;;;;;;;;;;18.40;45.80;;;;;;6181163;23;19928;-96
2023/04/12 13:06:28;;;;;;;;;;;18.50;44.90;;;;;;6154942;23;19960;-96
2023/04/12 13:08:55;;;;;;;;;;;18.50;43.40;;;;;;6154114;23;19904;-96
2023/04/12 13:11:21;;;;;;;;;;;18.40;43.10;;;;;;6154745;23;19920;-96
2023/04/12 13:13:47;;;;;;;;;;;18.40;43.30;;;;;;6153374;23;19889;-96
2023/04/12 13:16:14;;;;;;;;;;;18.40;45.50;;;;;;6154537;23;19952;-96
2023/04/12 13:18:40;;;;;;;;;;;18.40;43.80;;;;;;6153683;23;19929;-96
2023/04/12 13:21:06;;;;;;;;;;;18.40;45.90;;;;;;6179822;23;19928;-96
2023/04/12 13:23:32;;;;;;;;;;;18.30;43.90;;;;;;6180529;23;19911;-96
2023/04/12 13:26:03;;;;;;;;;;;18.40;45.00;;;;;;6156843;23;19909;-96
2023/04/12 13:28:30;;;;;;;;;;;18.50;45.10;;;;;;6156325;23;19892;-96
2023/04/12 13:31:04;;;;;;;;;;;18.80;44.80;;;;;;6158192;23;19904;-96
2023/04/12 13:33:37;;;;;;;;;;;18.90;43.00;;;;;;6150753;23;19909;-96
2023/04/12 13:36:04;;;;;;;;;;;19.10;44.20;;;;;;6147420;23;19893;-96
2023/04/12 13:38:36;;;;;;;;;;;19.20;44.90;;;;;;6158689;23;19928;-96
2023/04/12 13:41:05;;;;;;;;;;;19.40;44.20;;;;;;6158066;23;19936;-96
2023/04/12 13:43:35;;;;;;;;;;;19.50;42.10;;;;;;6158329;23;19909;-96
2023/04/12 13:46:08;;;;;;;;;;;19.30;43.00;;;;;;6184350;23;19916;-96
2023/04/12 13:49:05;;;;;;;;;;;19.30;43.40;;;;;;6184326;23;19903;-96
2023/04/12 13:51:49;;;;;;;;;;;19.50;43.00;;;;;;6182766;23;19912;-96
2023/04/12 13:54:47;;;;;;;;;;;19.40;42.10;;;;;;6153246;23;19893;-96
2023/04/12 13:57:19;;;;;;;;;;;19.40;45.60;;;;;;6162386;23;19901;-96
2023/04/12 14:00:12;;;;;;;;;;;19.40;43.70;;;;;;6184403;23;19893;-96
2023/04/12 14:02:42;;;;;;;;;;;19.50;44.30;;;;;;6156200;23;19908;-96
2023/04/12 14:08:01;;;;;;;;;;;19.30;46.70;;;;;;6172754;23;19969;-96
2023/04/12 14:10:27;;;;;;;;;;;19.20;46.40;;;;;;6153251;23;19974;-96
2023/04/12 14:12:53;;;;;;;;;;;19.10;46.10;;;;;;6178222;23;19908;-96
2023/04/12 14:15:19;;;;;;;;;;;19.10;46.20;;;;;;6175799;23;19905;-96
2023/04/12 14:17:46;;;;;;;;;;;19.00;45.40;;;;;;6150500;23;19904;-96
2023/04/12 14:20:12;;;;;;;;;;;18.90;45.70;;;;;;6175709;23;19928;-96
2023/04/12 14:22:39;;;;;;;;;;;18.90;46.10;;;;;;6176962;23;20039;-96
2023/04/12 14:25:05;;;;;;;;;;;19.00;47.80;;;;;;6151471;23;19905;-96
2023/04/12 14:27:34;;;;;;;;;;;19.10;47.40;;;;;;6149726;23;19963;-96
2023/04/12 14:30:00;;;;;;;;;;;19.10;47.00;;;;;;6149817;23;19966;-96
2023/04/12 14:32:26;;;;;;;;;;;19.00;47.50;;;;;;6145932;23;20250;-96
2023/04/12 14:34:53;;;;;;;;;;;19.00;47.50;;;;;;6174923;23;19905;-96
2023/04/12 14:37:19;;;;;;;;;;;18.80;47.30;;;;;;6173836;23;19905;-96
2023/04/12 14:39:45;;;;;;;;;;;18.70;45.80;;;;;;6146913;23;19911;-97
2023/04/12 14:42:11;;;;;;;;;;;18.70;46.70;;;;;;6176327;23;19912;-96
2023/04/12 14:44:37;;;;;;;;;;;18.70;46.30;;;;;;6150968;23;19904;-96
2023/04/12 14:47:05;;;;;;;;;;;18.60;46.50;;;;;;6176957;23;19920;-96
2023/04/12 14:49:31;;;;;;;;;;;18.50;47.30;;;;;;6179227;23;19916;-96
2023/04/12 14:51:57;;;;;;;;;;;18.50;47.90;;;;;;6151019;23;19911;-96
2023/04/12 14:54:23;;;;;;;;;;;18.40;47.70;;;;;;6147873;23;19908;-96